sensor_id;sensor_type;location;lat;lon;timestamp;P1;durP1;ratioP1;P2;durP2;ratioP2
15153;SDS011;7677;41.896;25.004;2023-04-19T00:01:44;1.40;;;1.30;;
15153;SDS011;7677;41.896;25.004;2023-04-19T00:04:11;1.00;;;1.00;;
15153;SDS011;7677;41.896;25.004;2023-04-19T00:06:39;1.10;;;1.10;;
15153;SDS011;7677;41.896;25.004;2023-04-19T00:09:09;2.00;;;1.30;;
15153;SDS011;7677;41.896;25.004;2023-04-19T00:11:36;1.30;;;1.20;;
15153;SDS011;7677;41.896;25.004;2023-04-19T00:14:03;1.13;;;1.10;;
15153;SDS011;7677;41.896;25.004;2023-04-19T00:19:17;1.20;;;1.10;;
15153;SDS011;7677;41.896;25.004;2023-04-19T00:21:45;1.23;;;0.90;;
15153;SDS011;7677;41.896;25.004;2023-04-19T00:24:14;1.00;;;1.00;;
15153;SDS011;7677;41.896;25.004;2023-04-19T00:26:41;1.30;;;1.23;;
15153;SDS011;7677;41.896;25.004;2023-04-19T00:29:09;1.93;;;1.20;;
15153;SDS011;7677;41.896;25.004;2023-04-19T00:31:36;1.63;;;1.53;;
15153;SDS011;7677;41.896;25.004;2023-04-19T00:34:04;0.90;;;0.90;;
15153;SDS011;7677;41.896;25.004;2023-04-19T00:36:31;0.80;;;0.80;;
15153;SDS011;7677;41.896;25.004;2023-04-19T00:38:58;1.20;;;1.10;;
15153;SDS011;7677;41.896;25.004;2023-04-19T00:41:27;2.27;;;1.07;;
15153;SDS011;7677;41.896;25.004;2023-04-19T00:43:54;1.10;;;0.90;;
15153;SDS011;7677;41.896;25.004;2023-04-19T00:46:22;1.10;;;1.00;;
15153;SDS011;7677;41.896;25.004;2023-04-19T00:48:49;1.13;;;0.93;;
15153;SDS011;7677;41.896;25.004;2023-04-19T00:51:16;1.10;;;1.00;;
15153;SDS011;7677;41.896;25.004;2023-04-19T00:53:44;0.83;;;0.83;;
15153;SDS011;7677;41.896;25.004;2023-04-19T00:56:21;1.47;;;0.80;;
15153;SDS011;7677;41.896;25.004;2023-04-19T00:58:50;0.93;;;0.93;;
15153;SDS011;7677;41.896;25.004;2023-04-19T01:01:17;0.70;;;0.70;;
15153;SDS011;7677;41.896;25.004;2023-04-19T01:03:44;0.70;;;0.70;;
15153;SDS011;7677;41.896;25.004;2023-04-19T01:06:12;0.60;;;0.60;;
15153;SDS011;7677;41.896;25.004;2023-04-19T01:08:39;0.70;;;0.70;;
15153;SDS011;7677;41.896;25.004;2023-04-19T01:11:06;0.83;;;0.83;;
15153;SDS011;7677;41.896;25.004;2023-04-19T01:13:34;0.67;;;0.67;;
15153;SDS011;7677;41.896;25.004;2023-04-19T01:16:03;0.70;;;0.70;;
15153;SDS011;7677;41.896;25.004;2023-04-19T01:18:30;0.90;;;0.90;;
15153;SDS011;7677;41.896;25.004;2023-04-19T01:21:01;0.77;;;0.77;;
15153;SDS011;7677;41.896;25.004;2023-04-19T01:23:30;0.90;;;0.90;;
15153;SDS011;7677;41.896;25.004;2023-04-19T01:25:57;0.60;;;0.60;;
15153;SDS011;7677;41.896;25.004;2023-04-19T01:28:25;0.80;;;0.80;;
15153;SDS011;7677;41.896;25.004;2023-04-19T01:30:52;0.80;;;0.80;;
15153;SDS011;7677;41.896;25.004;2023-04-19T01:33:19;0.60;;;0.60;;
15153;SDS011;7677;41.896;25.004;2023-04-19T01:35:47;0.60;;;0.60;;
15153;SDS011;7677;41.896;25.004;2023-04-19T01:38:14;0.73;;;0.73;;
15153;SDS011;7677;41.896;25.004;2023-04-19T01:40:43;0.60;;;0.60;;
15153;SDS011;7677;41.896;25.004;2023-04-19T01:43:11;0.63;;;0.63;;
15153;SDS011;7677;41.896;25.004;2023-04-19T01:45:39;5.30;;;0.83;;
15153;SDS011;7677;41.896;25.004;2023-04-19T01:48:07;0.70;;;0.70;;
15153;SDS011;7677;41.896;25.004;2023-04-19T01:50:34;0.70;;;0.70;;
15153;SDS011;7677;41.896;25.004;2023-04-19T01:53:01;0.73;;;0.73;;
15153;SDS011;7677;41.896;25.004;2023-04-19T01:55:28;0.73;;;0.73;;
15153;SDS011;7677;41.896;25.004;2023-04-19T01:57:57;0.70;;;0.70;;
15153;SDS011;7677;41.896;25.004;2023-04-19T02:00:24;0.80;;;0.80;;
15153;SDS011;7677;41.896;25.004;2023-04-19T02:02:51;0.80;;;0.80;;
15153;SDS011;7677;41.896;25.004;2023-04-19T02:05:19;0.70;;;0.70;;
15153;SDS011;7677;41.896;25.004;2023-04-19T02:07:46;0.70;;;0.70;;
15153;SDS011;7677;41.896;25.004;2023-04-19T02:10:13;0.50;;;0.50;;
15153;SDS011;7677;41.896;25.004;2023-04-19T02:12:40;0.63;;;0.63;;
15153;SDS011;7677;41.896;25.004;2023-04-19T02:15:09;0.70;;;0.70;;
15153;SDS011;7677;41.896;25.004;2023-04-19T02:17:37;0.70;;;0.70;;
15153;SDS011;7677;41.896;25.004;2023-04-19T02:22:53;0.77;;;0.77;;
15153;SDS011;7677;41.896;25.004;2023-04-19T02:25:20;0.60;;;0.60;;
15153;SDS011;7677;41.896;25.004;2023-04-19T02:27:47;0.60;;;0.60;;
15153;SDS011;7677;41.896;25.004;2023-04-19T02:30:16;0.70;;;0.70;;
15153;SDS011;7677;41.896;25.004;2023-04-19T02:32:46;0.80;;;0.80;;
15153;SDS011;7677;41.896;25.004;2023-04-19T02:35:13;0.70;;;0.70;;
15153;SDS011;7677;41.896;25.004;2023-04-19T02:37:41;0.60;;;0.60;;
15153;SDS011;7677;41.896;25.004;2023-04-19T02:40:08;0.80;;;0.80;;
15153;SDS011;7677;41.896;25.004;2023-04-19T02:42:36;0.50;;;0.50;;
15153;SDS011;7677;41.896;25.004;2023-04-19T02:45:03;0.67;;;0.67;;
15153;SDS011;7677;41.896;25.004;2023-04-19T02:47:32;0.60;;;0.60;;
15153;SDS011;7677;41.896;25.004;2023-04-19T02:50:00;0.87;;;0.77;;
15153;SDS011;7677;41.896;25.004;2023-04-19T02:52:27;0.80;;;0.80;;
15153;SDS011;7677;41.896;25.004;2023-04-19T02:54:54;0.60;;;0.60;;
15153;SDS011;7677;41.896;25.004;2023-04-19T02:57:21;0.70;;;0.70;;
15153;SDS011;7677;41.896;25.004;2023-04-19T02:59:48;1.50;;;0.97;;
15153;SDS011;7677;41.896;25.004;2023-04-19T03:02:16;0.77;;;0.77;;
15153;SDS011;7677;41.896;25.004;2023-04-19T03:04:44;0.80;;;0.80;;
15153;SDS011;7677;41.896;25.004;2023-04-19T03:07:12;0.77;;;0.77;;
15153;SDS011;7677;41.896;25.004;2023-04-19T03:09:39;0.90;;;0.90;;
15153;SDS011;7677;41.896;25.004;2023-04-19T03:12:06;1.00;;;0.90;;
15153;SDS011;7677;41.896;25.004;2023-04-19T03:14:34;2.70;;;0.90;;
15153;SDS011;7677;41.896;25.004;2023-04-19T03:17:01;0.90;;;0.90;;
15153;SDS011;7677;41.896;25.004;2023-04-19T03:19:28;0.97;;;0.87;;
15153;SDS011;7677;41.896;25.004;2023-04-19T03:21:57;0.90;;;0.90;;
15153;SDS011;7677;41.896;25.004;2023-04-19T03:24:27;3.73;;;1.00;;
15153;SDS011;7677;41.896;25.004;2023-04-19T03:26:54;0.73;;;0.73;;
15153;SDS011;7677;41.896;25.004;2023-04-19T03:29:21;0.70;;;0.70;;
15153;SDS011;7677;41.896;25.004;2023-04-19T03:31:48;0.53;;;0.53;;
15153;SDS011;7677;41.896;25.004;2023-04-19T03:34:16;0.67;;;0.67;;
15153;SDS011;7677;41.896;25.004;2023-04-19T03:36:43;0.80;;;0.80;;
15153;SDS011;7677;41.896;25.004;2023-04-19T03:39:11;0.63;;;0.63;;
15153;SDS011;7677;41.896;25.004;2023-04-19T03:41:39;0.60;;;0.60;;
15153;SDS011;7677;41.896;25.004;2023-04-19T03:44:06;0.60;;;0.60;;
15153;SDS011;7677;41.896;25.004;2023-04-19T03:46:33;0.80;;;0.80;;
15153;SDS011;7677;41.896;25.004;2023-04-19T03:49:00;0.80;;;0.80;;
15153;SDS011;7677;41.896;25.004;2023-04-19T03:51:28;0.93;;;0.93;;
15153;SDS011;7677;41.896;25.004;2023-04-19T03:53:55;0.80;;;0.80;;
15153;SDS011;7677;41.896;25.004;2023-04-19T03:56:24;0.90;;;0.90;;
15153;SDS011;7677;41.896;25.004;2023-04-19T03:58:51;0.90;;;0.90;;
15153;SDS011;7677;41.896;25.004;2023-04-19T04:01:18;0.73;;;0.73;;
15153;SDS011;7677;41.896;25.004;2023-04-19T04:03:45;0.70;;;0.70;;
15153;SDS011;7677;41.896;25.004;2023-04-19T04:06:13;0.60;;;0.60;;
15153;SDS011;7677;41.896;25.004;2023-04-19T04:08:40;0.60;;;0.60;;
15153;SDS011;7677;41.896;25.004;2023-04-19T04:11:07;0.80;;;0.80;;
15153;SDS011;7677;41.896;25.004;2023-04-19T04:13:36;1.00;;;1.00;;
15153;SDS011;7677;41.896;25.004;2023-04-19T04:16:03;0.80;;;0.80;;
15153;SDS011;7677;41.896;25.004;2023-04-19T04:18:30;1.00;;;1.00;;
15153;SDS011;7677;41.896;25.004;2023-04-19T04:20:57;0.80;;;0.80;;
15153;SDS011;7677;41.896;25.004;2023-04-19T04:23:24;1.03;;;0.93;;
15153;SDS011;7677;41.896;25.004;2023-04-19T04:25:55;0.70;;;0.70;;
15153;SDS011;7677;41.896;25.004;2023-04-19T04:31:18;0.90;;;0.90;;
15153;SDS011;7677;41.896;25.004;2023-04-19T04:33:45;0.80;;;0.80;;
15153;SDS011;7677;41.896;25.004;2023-04-19T04:36:13;0.80;;;0.80;;
15153;SDS011;7677;41.896;25.004;2023-04-19T04:38:40;0.80;;;0.80;;
15153;SDS011;7677;41.896;25.004;2023-04-19T04:41:07;1.10;;;1.00;;
15153;SDS011;7677;41.896;25.004;2023-04-19T04:43:34;0.60;;;0.60;;
15153;SDS011;7677;41.896;25.004;2023-04-19T04:46:05;1.40;;;1.30;;
15153;SDS011;7677;41.896;25.004;2023-04-19T04:48:33;0.90;;;0.90;;
15153;SDS011;7677;41.896;25.004;2023-04-19T04:51:00;1.97;;;1.87;;
15153;SDS011;7677;41.896;25.004;2023-04-19T04:53:27;3.13;;;2.63;;
15153;SDS011;7677;41.896;25.004;2023-04-19T04:55:55;2.37;;;2.17;;
15153;SDS011;7677;41.896;25.004;2023-04-19T04:58:22;9.00;;;5.50;;
15153;SDS011;7677;41.896;25.004;2023-04-19T05:00:49;29.37;;;15.93;;
15153;SDS011;7677;41.896;25.004;2023-04-19T05:03:18;14.43;;;7.07;;
15153;SDS011;7677;41.896;25.004;2023-04-19T05:05:45;9.40;;;4.87;;
15153;SDS011;7677;41.896;25.004;2023-04-19T05:08:12;5.23;;;3.50;;
15153;SDS011;7677;41.896;25.004;2023-04-19T05:10:39;5.73;;;3.43;;
15153;SDS011;7677;41.896;25.004;2023-04-19T05:13:07;5.03;;;3.63;;
15153;SDS011;7677;41.896;25.004;2023-04-19T05:15:34;5.93;;;5.13;;
15153;SDS011;7677;41.896;25.004;2023-04-19T05:18:01;4.60;;;4.20;;
15153;SDS011;7677;41.896;25.004;2023-04-19T05:20:30;3.27;;;1.93;;
15153;SDS011;7677;41.896;25.004;2023-04-19T05:22:58;1.50;;;1.40;;
15153;SDS011;7677;41.896;25.004;2023-04-19T05:25:27;2.57;;;2.03;;
15153;SDS011;7677;41.896;25.004;2023-04-19T05:27:55;2.60;;;2.40;;
15153;SDS011;7677;41.896;25.004;2023-04-19T05:30:22;2.23;;;1.90;;
15153;SDS011;7677;41.896;25.004;2023-04-19T05:32:50;1.20;;;1.20;;
15153;SDS011;7677;41.896;25.004;2023-04-19T05:35:17;0.90;;;0.90;;
15153;SDS011;7677;41.896;25.004;2023-04-19T05:37:46;0.70;;;0.70;;
15153;SDS011;7677;41.896;25.004;2023-04-19T05:40:13;1.00;;;1.00;;
15153;SDS011;7677;41.896;25.004;2023-04-19T05:42:40;1.03;;;0.97;;
15153;SDS011;7677;41.896;25.004;2023-04-19T05:45:08;0.77;;;0.77;;
15153;SDS011;7677;41.896;25.004;2023-04-19T05:47:36;0.80;;;0.80;;
15153;SDS011;7677;41.896;25.004;2023-04-19T05:50:04;0.80;;;0.80;;
15153;SDS011;7677;41.896;25.004;2023-04-19T05:52:31;0.70;;;0.70;;
15153;SDS011;7677;41.896;25.004;2023-04-19T05:55:00;0.80;;;0.80;;
15153;SDS011;7677;41.896;25.004;2023-04-19T05:57:27;0.90;;;0.90;;
15153;SDS011;7677;41.896;25.004;2023-04-19T05:59:54;3.13;;;2.43;;
15153;SDS011;7677;41.896;25.004;2023-04-19T06:02:22;12.13;;;7.80;;
15153;SDS011;7677;41.896;25.004;2023-04-19T06:04:49;13.10;;;6.80;;
15153;SDS011;7677;41.896;25.004;2023-04-19T06:07:16;5.67;;;3.93;;
15153;SDS011;7677;41.896;25.004;2023-04-19T06:09:43;5.33;;;3.67;;
15153;SDS011;7677;41.896;25.004;2023-04-19T06:12:12;2.17;;;1.97;;
15153;SDS011;7677;41.896;25.004;2023-04-19T06:14:39;2.10;;;1.90;;
15153;SDS011;7677;41.896;25.004;2023-04-19T06:17:06;3.60;;;3.10;;
15153;SDS011;7677;41.896;25.004;2023-04-19T06:19:34;3.40;;;3.10;;
15153;SDS011;7677;41.896;25.004;2023-04-19T06:22:01;2.00;;;1.50;;
15153;SDS011;7677;41.896;25.004;2023-04-19T06:24:28;1.10;;;1.10;;
15153;SDS011;7677;41.896;25.004;2023-04-19T06:26:55;1.00;;;1.00;;
15153;SDS011;7677;41.896;25.004;2023-04-19T06:29:24;6.83;;;0.90;;
15153;SDS011;7677;41.896;25.004;2023-04-19T06:31:51;1.00;;;1.00;;
15153;SDS011;7677;41.896;25.004;2023-04-19T06:34:18;1.00;;;1.00;;
15153;SDS011;7677;41.896;25.004;2023-04-19T06:36:46;4.73;;;1.50;;
15153;SDS011;7677;41.896;25.004;2023-04-19T06:39:13;1.90;;;1.70;;
15153;SDS011;7677;41.896;25.004;2023-04-19T06:41:40;1.03;;;1.03;;
15153;SDS011;7677;41.896;25.004;2023-04-19T06:44:08;1.03;;;0.97;;
15153;SDS011;7677;41.896;25.004;2023-04-19T06:46:37;0.80;;;0.80;;
15153;SDS011;7677;41.896;25.004;2023-04-19T06:49:04;0.83;;;0.83;;
15153;SDS011;7677;41.896;25.004;2023-04-19T06:51:31;1.13;;;1.10;;
15153;SDS011;7677;41.896;25.004;2023-04-19T06:53:58;1.10;;;1.10;;
15153;SDS011;7677;41.896;25.004;2023-04-19T06:56:38;1.33;;;1.23;;
15153;SDS011;7677;41.896;25.004;2023-04-19T06:59:06;1.00;;;1.00;;
15153;SDS011;7677;41.896;25.004;2023-04-19T07:01:33;0.60;;;0.60;;
15153;SDS011;7677;41.896;25.004;2023-04-19T07:04:02;1.00;;;1.00;;
15153;SDS011;7677;41.896;25.004;2023-04-19T07:06:30;11.37;;;6.07;;
15153;SDS011;7677;41.896;25.004;2023-04-19T07:08:57;28.03;;;13.67;;
15153;SDS011;7677;41.896;25.004;2023-04-19T07:11:24;23.63;;;12.60;;
15153;SDS011;7677;41.896;25.004;2023-04-19T07:13:51;10.63;;;6.77;;
15153;SDS011;7677;41.896;25.004;2023-04-19T07:16:18;2.43;;;2.20;;
15153;SDS011;7677;41.896;25.004;2023-04-19T07:18:46;2.00;;;1.80;;
15153;SDS011;7677;41.896;25.004;2023-04-19T07:21:14;1.67;;;1.47;;
15153;SDS011;7677;41.896;25.004;2023-04-19T07:23:41;1.30;;;1.20;;
15153;SDS011;7677;41.896;25.004;2023-04-19T07:26:09;1.47;;;1.13;;
15153;SDS011;7677;41.896;25.004;2023-04-19T07:28:37;0.80;;;0.80;;
15153;SDS011;7677;41.896;25.004;2023-04-19T07:31:05;1.07;;;0.80;;
15153;SDS011;7677;41.896;25.004;2023-04-19T07:33:32;0.90;;;0.90;;
15153;SDS011;7677;41.896;25.004;2023-04-19T07:35:59;1.73;;;1.27;;
15153;SDS011;7677;41.896;25.004;2023-04-19T07:38:28;2.93;;;2.10;;
15153;SDS011;7677;41.896;25.004;2023-04-19T07:40:55;3.07;;;2.83;;
15153;SDS011;7677;41.896;25.004;2023-04-19T07:43:22;3.20;;;2.83;;
15153;SDS011;7677;41.896;25.004;2023-04-19T07:45:50;3.60;;;2.80;;
15153;SDS011;7677;41.896;25.004;2023-04-19T07:48:17;3.07;;;2.20;;
15153;SDS011;7677;41.896;25.004;2023-04-19T07:50:44;2.20;;;2.07;;
15153;SDS011;7677;41.896;25.004;2023-04-19T07:53:12;2.37;;;2.10;;
15153;SDS011;7677;41.896;25.004;2023-04-19T07:55:40;5.60;;;4.13;;
15153;SDS011;7677;41.896;25.004;2023-04-19T07:58:07;5.93;;;3.87;;
15153;SDS011;7677;41.896;25.004;2023-04-19T08:00:35;4.13;;;2.97;;
15153;SDS011;7677;41.896;25.004;2023-04-19T08:03:02;3.23;;;2.93;;
15153;SDS011;7677;41.896;25.004;2023-04-19T08:05:29;3.40;;;2.63;;
15153;SDS011;7677;41.896;25.004;2023-04-19T08:07:56;5.53;;;3.80;;
15153;SDS011;7677;41.896;25.004;2023-04-19T08:10:24;3.10;;;2.70;;
15153;SDS011;7677;41.896;25.004;2023-04-19T08:12:54;2.87;;;2.23;;
15153;SDS011;7677;41.896;25.004;2023-04-19T08:15:21;2.53;;;2.30;;
15153;SDS011;7677;41.896;25.004;2023-04-19T08:17:48;1.50;;;1.40;;
15153;SDS011;7677;41.896;25.004;2023-04-19T08:20:15;1.60;;;1.50;;
15153;SDS011;7677;41.896;25.004;2023-04-19T08:22:43;1.30;;;1.20;;
15153;SDS011;7677;41.896;25.004;2023-04-19T08:25:11;1.70;;;1.60;;
15153;SDS011;7677;41.896;25.004;2023-04-19T08:27:38;1.70;;;1.60;;
15153;SDS011;7677;41.896;25.004;2023-04-19T08:30:07;3.67;;;2.50;;
15153;SDS011;7677;41.896;25.004;2023-04-19T08:32:35;7.23;;;3.73;;
15153;SDS011;7677;41.896;25.004;2023-04-19T08:35:02;2.10;;;1.53;;
15153;SDS011;7677;41.896;25.004;2023-04-19T08:37:32;2.20;;;1.93;;
15153;SDS011;7677;41.896;25.004;2023-04-19T08:40:01;1.80;;;1.70;;
15153;SDS011;7677;41.896;25.004;2023-04-19T08:42:30;1.30;;;1.20;;
15153;SDS011;7677;41.896;25.004;2023-04-19T08:44:58;2.00;;;1.10;;
15153;SDS011;7677;41.896;25.004;2023-04-19T08:47:29;1.27;;;1.23;;
15153;SDS011;7677;41.896;25.004;2023-04-19T08:49:58;2.40;;;2.07;;
15153;SDS011;7677;41.896;25.004;2023-04-19T08:52:26;2.33;;;1.83;;
15153;SDS011;7677;41.896;25.004;2023-04-19T08:54:53;4.87;;;3.10;;
15153;SDS011;7677;41.896;25.004;2023-04-19T08:57:21;6.07;;;3.67;;
15153;SDS011;7677;41.896;25.004;2023-04-19T08:59:48;3.33;;;2.10;;
15153;SDS011;7677;41.896;25.004;2023-04-19T09:02:20;4.43;;;3.10;;
15153;SDS011;7677;41.896;25.004;2023-04-19T09:04:48;4.80;;;2.93;;
15153;SDS011;7677;41.896;25.004;2023-04-19T09:07:22;3.13;;;2.40;;
15153;SDS011;7677;41.896;25.004;2023-04-19T09:10:03;2.23;;;2.00;;
15153;SDS011;7677;41.896;25.004;2023-04-19T09:12:32;4.93;;;3.40;;
15153;SDS011;7677;41.896;25.004;2023-04-19T09:14:59;7.13;;;4.53;;
15153;SDS011;7677;41.896;25.004;2023-04-19T09:17:27;4.60;;;3.27;;
15153;SDS011;7677;41.896;25.004;2023-04-19T09:19:56;2.43;;;2.00;;
15153;SDS011;7677;41.896;25.004;2023-04-19T09:22:23;2.20;;;2.00;;
15153;SDS011;7677;41.896;25.004;2023-04-19T09:24:51;1.67;;;1.57;;
15153;SDS011;7677;41.896;25.004;2023-04-19T09:27:26;2.27;;;1.70;;
15153;SDS011;7677;41.896;25.004;2023-04-19T09:29:54;6.83;;;2.93;;
15153;SDS011;7677;41.896;25.004;2023-04-19T09:32:22;4.13;;;2.93;;
15153;SDS011;7677;41.896;25.004;2023-04-19T09:34:50;3.37;;;2.63;;
15153;SDS011;7677;41.896;25.004;2023-04-19T09:37:20;2.03;;;1.50;;
15153;SDS011;7677;41.896;25.004;2023-04-19T09:39:47;3.20;;;2.50;;
15153;SDS011;7677;41.896;25.004;2023-04-19T09:42:15;3.77;;;2.53;;
15153;SDS011;7677;41.896;25.004;2023-04-19T09:44:54;2.00;;;1.80;;
15153;SDS011;7677;41.896;25.004;2023-04-19T09:47:22;1.80;;;1.70;;
15153;SDS011;7677;41.896;25.004;2023-04-19T09:50:02;1.43;;;1.33;;
15153;SDS011;7677;41.896;25.004;2023-04-19T09:52:34;1.60;;;1.50;;
15153;SDS011;7677;41.896;25.004;2023-04-19T09:55:02;2.33;;;1.90;;
15153;SDS011;7677;41.896;25.004;2023-04-19T09:57:31;1.60;;;1.50;;
15153;SDS011;7677;41.896;25.004;2023-04-19T10:00:00;1.50;;;1.40;;
15153;SDS011;7677;41.896;25.004;2023-04-19T10:02:31;1.70;;;1.60;;
15153;SDS011;7677;41.896;25.004;2023-04-19T10:04:58;1.70;;;1.60;;
15153;SDS011;7677;41.896;25.004;2023-04-19T10:07:26;2.00;;;1.90;;
15153;SDS011;7677;41.896;25.004;2023-04-19T10:09:55;3.83;;;1.90;;
15153;SDS011;7677;41.896;25.004;2023-04-19T10:12:24;3.17;;;1.80;;
15153;SDS011;7677;41.896;25.004;2023-04-19T10:14:52;2.10;;;1.90;;
15153;SDS011;7677;41.896;25.004;2023-04-19T10:17:21;2.10;;;1.90;;
15153;SDS011;7677;41.896;25.004;2023-04-19T10:19:49;1.80;;;1.57;;
15153;SDS011;7677;41.896;25.004;2023-04-19T10:22:20;2.40;;;1.77;;
15153;SDS011;7677;41.896;25.004;2023-04-19T10:27:40;1.97;;;1.87;;
15153;SDS011;7677;41.896;25.004;2023-04-19T10:30:15;2.20;;;2.03;;
15153;SDS011;7677;41.896;25.004;2023-04-19T10:32:45;2.30;;;2.10;;
15153;SDS011;7677;41.896;25.004;2023-04-19T10:35:18;2.80;;;2.30;;
15153;SDS011;7677;41.896;25.004;2023-04-19T10:38:02;1.97;;;1.80;;
15153;SDS011;7677;41.896;25.004;2023-04-19T10:43:23;2.30;;;2.10;;
15153;SDS011;7677;41.896;25.004;2023-04-19T10:45:51;2.10;;;1.87;;
15153;SDS011;7677;41.896;25.004;2023-04-19T10:48:31;2.10;;;1.90;;
15153;SDS011;7677;41.896;25.004;2023-04-19T10:51:04;2.37;;;1.87;;
15153;SDS011;7677;41.896;25.004;2023-04-19T10:53:45;2.17;;;2.07;;
15153;SDS011;7677;41.896;25.004;2023-04-19T10:56:15;2.70;;;2.33;;
15153;SDS011;7677;41.896;25.004;2023-04-19T11:01:48;2.23;;;2.03;;
15153;SDS011;7677;41.896;25.004;2023-04-19T11:04:17;2.50;;;2.10;;
15153;SDS011;7677;41.896;25.004;2023-04-19T11:06:58;1.90;;;1.80;;
15153;SDS011;7677;41.896;25.004;2023-04-19T11:09:27;2.70;;;2.17;;
15153;SDS011;7677;41.896;25.004;2023-04-19T11:12:00;2.03;;;1.87;;
15153;SDS011;7677;41.896;25.004;2023-04-19T11:14:32;2.40;;;1.80;;
15153;SDS011;7677;41.896;25.004;2023-04-19T11:17:01;1.93;;;1.73;;
15153;SDS011;7677;41.896;25.004;2023-04-19T11:19:29;2.10;;;1.90;;
15153;SDS011;7677;41.896;25.004;2023-04-19T11:21:57;2.13;;;1.97;;
15153;SDS011;7677;41.896;25.004;2023-04-19T11:24:25;2.23;;;2.03;;
15153;SDS011;7677;41.896;25.004;2023-04-19T11:26:54;1.90;;;1.70;;
15153;SDS011;7677;41.896;25.004;2023-04-19T11:29:23;1.97;;;1.87;;
15153;SDS011;7677;41.896;25.004;2023-04-19T11:31:50;1.63;;;1.53;;
15153;SDS011;7677;41.896;25.004;2023-04-19T11:34:21;1.67;;;1.57;;
15153;SDS011;7677;41.896;25.004;2023-04-19T11:36:49;2.00;;;1.80;;
15153;SDS011;7677;41.896;25.004;2023-04-19T11:39:16;1.93;;;1.83;;
15153;SDS011;7677;41.896;25.004;2023-04-19T11:41:43;1.60;;;1.50;;
15153;SDS011;7677;41.896;25.004;2023-04-19T11:44:12;1.90;;;1.80;;
15153;SDS011;7677;41.896;25.004;2023-04-19T11:46:41;1.80;;;1.70;;
15153;SDS011;7677;41.896;25.004;2023-04-19T11:49:08;1.97;;;1.87;;
15153;SDS011;7677;41.896;25.004;2023-04-19T11:51:40;2.20;;;1.77;;
15153;SDS011;7677;41.896;25.004;2023-04-19T11:54:11;2.30;;;2.10;;
15153;SDS011;7677;41.896;25.004;2023-04-19T11:56:56;2.10;;;1.80;;
15153;SDS011;7677;41.896;25.004;2023-04-19T11:59:33;1.83;;;1.50;;
15153;SDS011;7677;41.896;25.004;2023-04-19T12:02:07;2.00;;;1.70;;
15153;SDS011;7677;41.896;25.004;2023-04-19T12:04:34;3.10;;;2.80;;
15153;SDS011;7677;41.896;25.004;2023-04-19T12:07:02;2.40;;;2.20;;
15153;SDS011;7677;41.896;25.004;2023-04-19T12:09:32;5.70;;;2.77;;
15153;SDS011;7677;41.896;25.004;2023-04-19T12:12:00;1.70;;;1.60;;
15153;SDS011;7677;41.896;25.004;2023-04-19T12:14:28;1.90;;;1.80;;
15153;SDS011;7677;41.896;25.004;2023-04-19T12:17:07;2.00;;;1.90;;
15153;SDS011;7677;41.896;25.004;2023-04-19T12:19:35;2.17;;;1.97;;
15153;SDS011;7677;41.896;25.004;2023-04-19T12:22:07;2.20;;;2.00;;
15153;SDS011;7677;41.896;25.004;2023-04-19T12:24:35;2.00;;;1.90;;
15153;SDS011;7677;41.896;25.004;2023-04-19T12:27:03;3.47;;;2.80;;
15153;SDS011;7677;41.896;25.004;2023-04-19T12:29:30;2.83;;;2.63;;
15153;SDS011;7677;41.896;25.004;2023-04-19T12:31:58;2.67;;;2.47;;
15153;SDS011;7677;41.896;25.004;2023-04-19T12:34:26;2.73;;;2.50;;
15153;SDS011;7677;41.896;25.004;2023-04-19T12:36:54;1.77;;;1.67;;
15153;SDS011;7677;41.896;25.004;2023-04-19T12:39:21;1.60;;;1.50;;
15153;SDS011;7677;41.896;25.004;2023-04-19T12:41:48;6.73;;;3.60;;
15153;SDS011;7677;41.896;25.004;2023-04-19T12:44:16;11.30;;;7.30;;
15153;SDS011;7677;41.896;25.004;2023-04-19T12:46:43;4.17;;;3.77;;
15153;SDS011;7677;41.896;25.004;2023-04-19T12:49:10;3.00;;;2.17;;
15153;SDS011;7677;41.896;25.004;2023-04-19T12:51:39;2.93;;;2.10;;
15153;SDS011;7677;41.896;25.004;2023-04-19T12:54:07;5.17;;;2.60;;
15153;SDS011;7677;41.896;25.004;2023-04-19T12:56:34;2.20;;;1.87;;
15153;SDS011;7677;41.896;25.004;2023-04-19T12:59:01;2.27;;;2.07;;
15153;SDS011;7677;41.896;25.004;2023-04-19T13:01:29;2.07;;;1.87;;
15153;SDS011;7677;41.896;25.004;2023-04-19T13:03:56;2.03;;;1.80;;
15153;SDS011;7677;41.896;25.004;2023-04-19T13:06:23;2.03;;;1.70;;
15153;SDS011;7677;41.896;25.004;2023-04-19T13:08:52;1.80;;;1.70;;
15153;SDS011;7677;41.896;25.004;2023-04-19T13:11:19;1.90;;;1.80;;
15153;SDS011;7677;41.896;25.004;2023-04-19T13:13:48;2.33;;;1.80;;
15153;SDS011;7677;41.896;25.004;2023-04-19T13:16:16;1.77;;;1.67;;
15153;SDS011;7677;41.896;25.004;2023-04-19T13:18:44;2.60;;;2.00;;
15153;SDS011;7677;41.896;25.004;2023-04-19T13:21:11;1.73;;;1.60;;
15153;SDS011;7677;41.896;25.004;2023-04-19T13:23:38;1.40;;;1.30;;
15153;SDS011;7677;41.896;25.004;2023-04-19T13:26:07;1.50;;;1.40;;
15153;SDS011;7677;41.896;25.004;2023-04-19T13:28:34;1.67;;;1.57;;
15153;SDS011;7677;41.896;25.004;2023-04-19T13:31:02;1.70;;;1.60;;
15153;SDS011;7677;41.896;25.004;2023-04-19T13:33:30;3.53;;;2.20;;
15153;SDS011;7677;41.896;25.004;2023-04-19T13:35:57;3.30;;;2.63;;
15153;SDS011;7677;41.896;25.004;2023-04-19T13:38:24;3.33;;;2.60;;
15153;SDS011;7677;41.896;25.004;2023-04-19T13:40:51;2.17;;;1.97;;
15153;SDS011;7677;41.896;25.004;2023-04-19T13:43:20;1.10;;;1.10;;
15153;SDS011;7677;41.896;25.004;2023-04-19T13:45:47;1.20;;;1.20;;
15153;SDS011;7677;41.896;25.004;2023-04-19T13:48:14;1.50;;;1.40;;
15153;SDS011;7677;41.896;25.004;2023-04-19T13:50:41;1.23;;;1.13;;
15153;SDS011;7677;41.896;25.004;2023-04-19T13:53:09;1.10;;;1.10;;
15153;SDS011;7677;41.896;25.004;2023-04-19T13:55:36;2.63;;;1.40;;
15153;SDS011;7677;41.896;25.004;2023-04-19T13:58:03;1.13;;;1.10;;
15153;SDS011;7677;41.896;25.004;2023-04-19T14:00:34;1.57;;;1.30;;
15153;SDS011;7677;41.896;25.004;2023-04-19T14:03:04;1.60;;;1.50;;
15153;SDS011;7677;41.896;25.004;2023-04-19T14:05:33;1.30;;;1.27;;
15153;SDS011;7677;41.896;25.004;2023-04-19T14:08:01;1.47;;;1.37;;
15153;SDS011;7677;41.896;25.004;2023-04-19T14:10:29;1.93;;;1.47;;
15153;SDS011;7677;41.896;25.004;2023-04-19T14:12:57;2.30;;;2.10;;
15153;SDS011;7677;41.896;25.004;2023-04-19T14:15:26;2.53;;;2.03;;
15153;SDS011;7677;41.896;25.004;2023-04-19T14:17:54;2.33;;;2.13;;
15153;SDS011;7677;41.896;25.004;2023-04-19T14:20:21;4.00;;;2.93;;
15153;SDS011;7677;41.896;25.004;2023-04-19T14:22:48;2.20;;;2.00;;
15153;SDS011;7677;41.896;25.004;2023-04-19T14:25:16;2.83;;;2.23;;
15153;SDS011;7677;41.896;25.004;2023-04-19T14:27:43;3.17;;;2.87;;
15153;SDS011;7677;41.896;25.004;2023-04-19T14:30:11;7.33;;;4.53;;
15153;SDS011;7677;41.896;25.004;2023-04-19T14:32:38;7.13;;;5.50;;
15153;SDS011;7677;41.896;25.004;2023-04-19T14:35:07;6.00;;;4.73;;
15153;SDS011;7677;41.896;25.004;2023-04-19T14:37:36;4.37;;;3.30;;
15153;SDS011;7677;41.896;25.004;2023-04-19T14:40:04;3.57;;;3.00;;
15153;SDS011;7677;41.896;25.004;2023-04-19T14:42:32;2.87;;;2.63;;
15153;SDS011;7677;41.896;25.004;2023-04-19T14:44:59;3.37;;;2.90;;
15153;SDS011;7677;41.896;25.004;2023-04-19T14:47:26;3.07;;;2.50;;
15153;SDS011;7677;41.896;25.004;2023-04-19T14:49:53;3.30;;;2.50;;
15153;SDS011;7677;41.896;25.004;2023-04-19T14:52:22;2.57;;;2.33;;
15153;SDS011;7677;41.896;25.004;2023-04-19T14:54:50;3.10;;;2.53;;
15153;SDS011;7677;41.896;25.004;2023-04-19T14:57:17;2.80;;;2.13;;
15153;SDS011;7677;41.896;25.004;2023-04-19T14:59:44;2.53;;;2.10;;
15153;SDS011;7677;41.896;25.004;2023-04-19T15:02:11;2.60;;;2.40;;
15153;SDS011;7677;41.896;25.004;2023-04-19T15:04:38;7.53;;;2.20;;
15153;SDS011;7677;41.896;25.004;2023-04-19T15:07:06;2.30;;;2.10;;
15153;SDS011;7677;41.896;25.004;2023-04-19T15:09:34;2.57;;;2.30;;
15153;SDS011;7677;41.896;25.004;2023-04-19T15:12:02;3.00;;;2.63;;